Terminal Aerodrome Forecast
Issued by NWS

Home | Current Version | Previous Version | Text Only | Print | Product List | Glossary On
Versions: 1 2 3 4 5 6 7 8 9 10 11 12 13 14 15 16 17 18 19 20 21 22 23 24 25
000
FTUS46 KLOX 021723
TAFLAX
TAF
KLAX 021723Z 0218/0324 02008KT P6SM SKC WS015/03035KT
     FM022100 32012KT P6SM SKC WS015/03030KT
     FM030100 01007KT P6SM SKC
     FM031500 06007KT P6SM SKC
     FM032100 27008KT P6SM SKC=

USA.gov is the U.S. government's official web portal to all federal, state and local government web resources and services.